METAR Data
IDs: Format: Raw Decoded Include TAF

Data at: 1601 UTC 16 Feb 2019

METAR for:KFFO (Wright-Patterson AFB, OH, US)
Text:KFFO 161556Z 03007KT 10SM OVC016 M04/M09 A3006 RMK AO2A SLP193 T10451092
Temperature: -4.5°C ( 24°F)
Dewpoint: -9.2°C ( 15°F) [RH = 70%]
Pressure (altimeter):30.06 inches Hg (1018.0 mb) [Sea level pressure: 1019.3 mb]
Winds:from the NNE (30 degrees) at 8 MPH (7 knots; 3.6 m/s)
Visibility:10 or more sm (16+ km)
Ceiling:1600 feet AGL
Clouds: overcast cloud deck at 1600 feet AGL